sensor_id;sensor_type;location;lat;lon;timestamp;temperature;humidity
20204;DHT22;10261;49.010;12.034;2023-02-15T00:00:35;3.70;99.90
20204;DHT22;10261;49.010;12.034;2023-02-15T00:01:39;3.70;99.90
20204;DHT22;10261;49.010;12.034;2023-02-15T00:02:41;3.60;99.90
20204;DHT22;10261;49.010;12.034;2023-02-15T00:03:44;3.70;99.90
20204;DHT22;10261;49.010;12.034;2023-02-15T00:04:46;3.70;99.90
20204;DHT22;10261;49.010;12.034;2023-02-15T00:05:49;3.70;99.90
20204;DHT22;10261;49.010;12.034;2023-02-15T00:06:51;3.70;99.90
20204;DHT22;10261;49.010;12.034;2023-02-15T00:07:54;3.80;99.90
20204;DHT22;10261;49.010;12.034;2023-02-15T00:08:56;3.80;99.90
20204;DHT22;10261;49.010;12.034;2023-02-15T00:09:59;3.70;99.90
20204;DHT22;10261;49.010;12.034;2023-02-15T00:11:05;3.60;99.90
20204;DHT22;10261;49.010;12.034;2023-02-15T00:12:09;3.70;99.90
20204;DHT22;10261;49.010;12.034;2023-02-15T00:13:11;3.70;99.90
20204;DHT22;10261;49.010;12.034;2023-02-15T00:14:16;3.60;99.90
20204;DHT22;10261;49.010;12.034;2023-02-15T00:15:18;3.70;99.90
20204;DHT22;10261;49.010;12.034;2023-02-15T00:16:22;3.70;99.90
20204;DHT22;10261;49.010;12.034;2023-02-15T00:17:27;3.60;99.90
20204;DHT22;10261;49.010;12.034;2023-02-15T00:18:30;3.60;99.90
20204;DHT22;10261;49.010;12.034;2023-02-15T00:19:32;3.60;99.90
20204;DHT22;10261;49.010;12.034;2023-02-15T00:20:35;3.70;99.90
20204;DHT22;10261;49.010;12.034;2023-02-15T00:21:38;3.60;99.90
20204;DHT22;10261;49.010;12.034;2023-02-15T00:22:42;3.70;99.90
20204;DHT22;10261;49.010;12.034;2023-02-15T00:23:43;3.60;99.90
20204;DHT22;10261;49.010;12.034;2023-02-15T00:24:46;3.60;99.90
20204;DHT22;10261;49.010;12.034;2023-02-15T00:25:48;3.60;99.90
20204;DHT22;10261;49.010;12.034;2023-02-15T00:26:52;3.50;99.90
20204;DHT22;10261;49.010;12.034;2023-02-15T00:27:54;3.60;99.90
20204;DHT22;10261;49.010;12.034;2023-02-15T00:28:58;3.60;99.90
20204;DHT22;10261;49.010;12.034;2023-02-15T00:30:00;3.60;99.90
20204;DHT22;10261;49.010;12.034;2023-02-15T00:31:05;3.60;99.90
20204;DHT22;10261;49.010;12.034;2023-02-15T00:32:08;3.70;99.90
20204;DHT22;10261;49.010;12.034;2023-02-15T00:33:11;3.60;99.90
20204;DHT22;10261;49.010;12.034;2023-02-15T00:34:15;3.60;99.90
20204;DHT22;10261;49.010;12.034;2023-02-15T00:35:18;3.70;99.90
20204;DHT22;10261;49.010;12.034;2023-02-15T00:36:20;3.70;99.90
20204;DHT22;10261;49.010;12.034;2023-02-15T00:37:23;3.60;99.90
20204;DHT22;10261;49.010;12.034;2023-02-15T00:38:26;3.60;99.90
20204;DHT22;10261;49.010;12.034;2023-02-15T00:39:29;3.60;99.90
20204;DHT22;10261;49.010;12.034;2023-02-15T00:40:32;3.60;99.90
20204;DHT22;10261;49.010;12.034;2023-02-15T00:41:34;3.70;99.90
20204;DHT22;10261;49.010;12.034;2023-02-15T00:42:38;3.70;99.90
20204;DHT22;10261;49.010;12.034;2023-02-15T00:43:39;3.70;99.90
20204;DHT22;10261;49.010;12.034;2023-02-15T00:44:42;3.70;99.90
20204;DHT22;10261;49.010;12.034;2023-02-15T00:45:45;3.70;99.90
20204;DHT22;10261;49.010;12.034;2023-02-15T00:46:48;3.60;99.90
20204;DHT22;10261;49.010;12.034;2023-02-15T00:47:51;3.70;99.90
20204;DHT22;10261;49.010;12.034;2023-02-15T00:48:54;3.70;99.90
20204;DHT22;10261;49.010;12.034;2023-02-15T00:49:57;3.70;99.90
20204;DHT22;10261;49.010;12.034;2023-02-15T00:51:00;3.70;99.90
20204;DHT22;10261;49.010;12.034;2023-02-15T00:52:03;3.60;99.90
20204;DHT22;10261;49.010;12.034;2023-02-15T00:53:06;3.60;99.90
20204;DHT22;10261;49.010;12.034;2023-02-15T00:54:08;3.60;99.90
20204;DHT22;10261;49.010;12.034;2023-02-15T00:55:11;3.70;99.90
20204;DHT22;10261;49.010;12.034;2023-02-15T00:56:13;3.70;99.90
20204;DHT22;10261;49.010;12.034;2023-02-15T00:57:16;3.80;99.90
20204;DHT22;10261;49.010;12.034;2023-02-15T00:58:18;3.80;99.90
20204;DHT22;10261;49.010;12.034;2023-02-15T00:59:21;3.70;99.90
20204;DHT22;10261;49.010;12.034;2023-02-15T01:00:24;3.70;99.90
20204;DHT22;10261;49.010;12.034;2023-02-15T01:01:26;3.70;99.90
20204;DHT22;10261;49.010;12.034;2023-02-15T01:02:29;3.80;99.90
20204;DHT22;10261;49.010;12.034;2023-02-15T01:03:33;3.70;99.90
20204;DHT22;10261;49.010;12.034;2023-02-15T01:04:36;3.70;99.90
20204;DHT22;10261;49.010;12.034;2023-02-15T01:05:38;3.70;99.90
20204;DHT22;10261;49.010;12.034;2023-02-15T01:06:41;3.60;99.90
20204;DHT22;10261;49.010;12.034;2023-02-15T01:07:43;3.50;99.90
20204;DHT22;10261;49.010;12.034;2023-02-15T01:08:46;3.60;99.90
20204;DHT22;10261;49.010;12.034;2023-02-15T01:09:48;3.60;99.90
20204;DHT22;10261;49.010;12.034;2023-02-15T01:10:51;3.60;99.90
20204;DHT22;10261;49.010;12.034;2023-02-15T01:11:53;3.60;99.90
20204;DHT22;10261;49.010;12.034;2023-02-15T01:12:56;3.60;99.90
20204;DHT22;10261;49.010;12.034;2023-02-15T01:13:59;3.70;99.90
20204;DHT22;10261;49.010;12.034;2023-02-15T01:15:02;3.70;99.90
20204;DHT22;10261;49.010;12.034;2023-02-15T01:16:04;3.70;99.90
20204;DHT22;10261;49.010;12.034;2023-02-15T01:17:07;3.70;99.90
20204;DHT22;10261;49.010;12.034;2023-02-15T01:18:09;3.70;99.90
20204;DHT22;10261;49.010;12.034;2023-02-15T01:19:14;3.70;99.90
20204;DHT22;10261;49.010;12.034;2023-02-15T01:20:16;3.70;99.90
20204;DHT22;10261;49.010;12.034;2023-02-15T01:21:22;3.70;99.90
20204;DHT22;10261;49.010;12.034;2023-02-15T01:22:24;3.70;99.90
20204;DHT22;10261;49.010;12.034;2023-02-15T01:23:27;3.70;99.90
20204;DHT22;10261;49.010;12.034;2023-02-15T01:24:29;3.80;99.90
20204;DHT22;10261;49.010;12.034;2023-02-15T01:25:33;3.70;99.90
20204;DHT22;10261;49.010;12.034;2023-02-15T01:26:35;3.70;99.90
20204;DHT22;10261;49.010;12.034;2023-02-15T01:27:38;3.80;99.90
20204;DHT22;10261;49.010;12.034;2023-02-15T01:28:41;3.80;99.90
20204;DHT22;10261;49.010;12.034;2023-02-15T01:29:44;3.80;99.90
20204;DHT22;10261;49.010;12.034;2023-02-15T01:30:46;3.80;99.90
20204;DHT22;10261;49.010;12.034;2023-02-15T01:31:49;3.90;99.90
20204;DHT22;10261;49.010;12.034;2023-02-15T01:32:51;3.80;99.90
20204;DHT22;10261;49.010;12.034;2023-02-15T01:33:54;3.70;99.90
20204;DHT22;10261;49.010;12.034;2023-02-15T01:34:57;3.70;99.90
20204;DHT22;10261;49.010;12.034;2023-02-15T01:36:01;3.70;99.90
20204;DHT22;10261;49.010;12.034;2023-02-15T01:37:04;3.70;99.90
20204;DHT22;10261;49.010;12.034;2023-02-15T01:38:07;3.70;99.90
20204;DHT22;10261;49.010;12.034;2023-02-15T01:39:09;3.70;99.90
20204;DHT22;10261;49.010;12.034;2023-02-15T01:40:14;3.60;99.90
20204;DHT22;10261;49.010;12.034;2023-02-15T01:41:16;3.60;99.90
20204;DHT22;10261;49.010;12.034;2023-02-15T01:42:25;3.70;99.90
20204;DHT22;10261;49.010;12.034;2023-02-15T01:43:39;3.60;99.90
20204;DHT22;10261;49.010;12.034;2023-02-15T01:44:51;3.60;99.90
20204;DHT22;10261;49.010;12.034;2023-02-15T01:45:54;3.60;99.90
20204;DHT22;10261;49.010;12.034;2023-02-15T01:46:56;3.60;99.90
20204;DHT22;10261;49.010;12.034;2023-02-15T01:48:02;3.60;99.90
20204;DHT22;10261;49.010;12.034;2023-02-15T01:49:11;3.60;99.90
20204;DHT22;10261;49.010;12.034;2023-02-15T01:50:20;3.60;99.90
20204;DHT22;10261;49.010;12.034;2023-02-15T01:51:24;3.60;99.90
20204;DHT22;10261;49.010;12.034;2023-02-15T01:52:30;3.50;99.90
20204;DHT22;10261;49.010;12.034;2023-02-15T01:53:34;3.50;99.90
20204;DHT22;10261;49.010;12.034;2023-02-15T01:54:39;3.50;99.90
20204;DHT22;10261;49.010;12.034;2023-02-15T01:55:46;3.50;99.90
20204;DHT22;10261;49.010;12.034;2023-02-15T01:56:51;3.60;99.90
20204;DHT22;10261;49.010;12.034;2023-02-15T01:57:54;3.60;99.90
20204;DHT22;10261;49.010;12.034;2023-02-15T01:58:59;3.70;99.90
20204;DHT22;10261;49.010;12.034;2023-02-15T02:00:06;3.70;99.90
20204;DHT22;10261;49.010;12.034;2023-02-15T02:01:11;3.60;99.90
20204;DHT22;10261;49.010;12.034;2023-02-15T02:02:13;3.70;99.90
20204;DHT22;10261;49.010;12.034;2023-02-15T02:03:18;3.60;99.90
20204;DHT22;10261;49.010;12.034;2023-02-15T02:04:31;3.60;99.90
20204;DHT22;10261;49.010;12.034;2023-02-15T02:05:37;3.70;99.90
20204;DHT22;10261;49.010;12.034;2023-02-15T02:06:40;3.70;99.90
20204;DHT22;10261;49.010;12.034;2023-02-15T02:07:45;3.60;99.90
20204;DHT22;10261;49.010;12.034;2023-02-15T02:08:48;3.60;99.90
20204;DHT22;10261;49.010;12.034;2023-02-15T02:09:52;3.70;99.90
20204;DHT22;10261;49.010;12.034;2023-02-15T02:10:54;3.60;99.90
20204;DHT22;10261;49.010;12.034;2023-02-15T02:11:57;3.50;99.90
20204;DHT22;10261;49.010;12.034;2023-02-15T02:13:01;3.50;99.90
20204;DHT22;10261;49.010;12.034;2023-02-15T02:14:05;3.50;99.90
20204;DHT22;10261;49.010;12.034;2023-02-15T02:15:08;3.40;99.90
20204;DHT22;10261;49.010;12.034;2023-02-15T02:16:18;3.40;99.90
20204;DHT22;10261;49.010;12.034;2023-02-15T02:17:27;3.50;99.90
20204;DHT22;10261;49.010;12.034;2023-02-15T02:18:41;3.50;99.90
20204;DHT22;10261;49.010;12.034;2023-02-15T02:20:05;3.50;99.90
20204;DHT22;10261;49.010;12.034;2023-02-15T02:24:52;3.40;99.90
20204;DHT22;10261;49.010;12.034;2023-02-15T02:26:22;3.40;99.90
20204;DHT22;10261;49.010;12.034;2023-02-15T02:27:34;3.40;99.90
20204;DHT22;10261;49.010;12.034;2023-02-15T02:30:54;3.40;99.90
20204;DHT22;10261;49.010;12.034;2023-02-15T02:32:32;3.30;99.90
20204;DHT22;10261;49.010;12.034;2023-02-15T02:33:49;3.20;99.90
20204;DHT22;10261;49.010;12.034;2023-02-15T02:35:00;3.20;99.90
20204;DHT22;10261;49.010;12.034;2023-02-15T02:36:12;3.30;99.90
20204;DHT22;10261;49.010;12.034;2023-02-15T02:37:22;3.30;99.90
20204;DHT22;10261;49.010;12.034;2023-02-15T02:38:28;3.40;99.90
20204;DHT22;10261;49.010;12.034;2023-02-15T02:39:45;3.40;99.90
20204;DHT22;10261;49.010;12.034;2023-02-15T02:40:55;3.50;99.90
20204;DHT22;10261;49.010;12.034;2023-02-15T02:42:09;3.50;99.90
20204;DHT22;10261;49.010;12.034;2023-02-15T02:43:18;3.50;99.90
20204;DHT22;10261;49.010;12.034;2023-02-15T02:44:25;3.60;99.90
20204;DHT22;10261;49.010;12.034;2023-02-15T02:45:32;3.50;99.90
20204;DHT22;10261;49.010;12.034;2023-02-15T02:46:46;3.40;99.90
20204;DHT22;10261;49.010;12.034;2023-02-15T02:47:52;3.50;99.90
20204;DHT22;10261;49.010;12.034;2023-02-15T02:48:58;3.50;99.90
20204;DHT22;10261;49.010;12.034;2023-02-15T02:50:05;3.40;99.90
20204;DHT22;10261;49.010;12.034;2023-02-15T02:51:07;3.40;99.90
20204;DHT22;10261;49.010;12.034;2023-02-15T02:52:35;3.40;99.90
20204;DHT22;10261;49.010;12.034;2023-02-15T02:53:37;3.40;99.90
20204;DHT22;10261;49.010;12.034;2023-02-15T02:54:40;3.50;99.90
20204;DHT22;10261;49.010;12.034;2023-02-15T02:55:44;3.50;99.90
20204;DHT22;10261;49.010;12.034;2023-02-15T02:56:49;3.50;99.90
20204;DHT22;10261;49.010;12.034;2023-02-15T02:57:55;3.50;99.90
20204;DHT22;10261;49.010;12.034;2023-02-15T02:59:02;3.40;99.90
20204;DHT22;10261;49.010;12.034;2023-02-15T03:00:07;3.40;99.90
20204;DHT22;10261;49.010;12.034;2023-02-15T03:01:14;3.50;99.90
20204;DHT22;10261;49.010;12.034;2023-02-15T03:02:19;3.50;99.90
20204;DHT22;10261;49.010;12.034;2023-02-15T03:03:27;3.50;99.90
20204;DHT22;10261;49.010;12.034;2023-02-15T03:04:36;3.50;99.90
20204;DHT22;10261;49.010;12.034;2023-02-15T03:05:43;3.50;99.90
20204;DHT22;10261;49.010;12.034;2023-02-15T03:06:49;3.50;99.90
20204;DHT22;10261;49.010;12.034;2023-02-15T03:07:54;3.50;99.90
20204;DHT22;10261;49.010;12.034;2023-02-15T03:09:02;3.40;99.90
20204;DHT22;10261;49.010;12.034;2023-02-15T03:10:07;3.40;99.90
20204;DHT22;10261;49.010;12.034;2023-02-15T03:11:11;3.40;99.90
20204;DHT22;10261;49.010;12.034;2023-02-15T03:12:17;3.40;99.90
20204;DHT22;10261;49.010;12.034;2023-02-15T03:13:21;3.40;99.90
20204;DHT22;10261;49.010;12.034;2023-02-15T03:14:24;3.40;99.90
20204;DHT22;10261;49.010;12.034;2023-02-15T03:15:30;3.40;99.90
20204;DHT22;10261;49.010;12.034;2023-02-15T03:16:54;3.40;99.90
20204;DHT22;10261;49.010;12.034;2023-02-15T03:17:58;3.40;99.90
20204;DHT22;10261;49.010;12.034;2023-02-15T03:19:07;3.30;99.90
20204;DHT22;10261;49.010;12.034;2023-02-15T03:20:16;3.30;99.90
20204;DHT22;10261;49.010;12.034;2023-02-15T03:21:23;3.30;99.90
20204;DHT22;10261;49.010;12.034;2023-02-15T03:22:29;3.30;99.90
20204;DHT22;10261;49.010;12.034;2023-02-15T03:23:36;3.30;99.90
20204;DHT22;10261;49.010;12.034;2023-02-15T03:24:44;3.30;99.90
20204;DHT22;10261;49.010;12.034;2023-02-15T03:25:51;3.30;99.90
20204;DHT22;10261;49.010;12.034;2023-02-15T03:26:55;3.30;99.90
20204;DHT22;10261;49.010;12.034;2023-02-15T03:28:00;3.30;99.90
20204;DHT22;10261;49.010;12.034;2023-02-15T03:29:06;3.30;99.90
20204;DHT22;10261;49.010;12.034;2023-02-15T03:30:10;3.30;99.90
20204;DHT22;10261;49.010;12.034;2023-02-15T03:31:15;3.30;99.90
20204;DHT22;10261;49.010;12.034;2023-02-15T03:32:19;3.30;99.90
20204;DHT22;10261;49.010;12.034;2023-02-15T03:33:23;3.30;99.90
20204;DHT22;10261;49.010;12.034;2023-02-15T03:34:27;3.30;99.90
20204;DHT22;10261;49.010;12.034;2023-02-15T03:35:37;3.30;99.90
20204;DHT22;10261;49.010;12.034;2023-02-15T03:36:45;3.40;99.90
20204;DHT22;10261;49.010;12.034;2023-02-15T03:37:52;3.40;99.90
20204;DHT22;10261;49.010;12.034;2023-02-15T03:38:59;3.50;99.90
20204;DHT22;10261;49.010;12.034;2023-02-15T03:40:09;3.40;99.90
20204;DHT22;10261;49.010;12.034;2023-02-15T03:41:31;3.40;99.90
20204;DHT22;10261;49.010;12.034;2023-02-15T03:42:39;3.50;99.90
20204;DHT22;10261;49.010;12.034;2023-02-15T03:43:46;3.40;99.90
20204;DHT22;10261;49.010;12.034;2023-02-15T03:44:55;3.30;99.90
20204;DHT22;10261;49.010;12.034;2023-02-15T03:46:06;3.30;99.90
20204;DHT22;10261;49.010;12.034;2023-02-15T03:47:13;3.30;99.90
20204;DHT22;10261;49.010;12.034;2023-02-15T03:48:19;3.30;99.90
20204;DHT22;10261;49.010;12.034;2023-02-15T03:49:24;3.40;99.90
20204;DHT22;10261;49.010;12.034;2023-02-15T03:50:29;3.40;99.90
20204;DHT22;10261;49.010;12.034;2023-02-15T03:51:53;3.40;99.90
20204;DHT22;10261;49.010;12.034;2023-02-15T03:52:57;3.00;99.90
20204;DHT22;10261;49.010;12.034;2023-02-15T03:54:03;2.40;99.90
20204;DHT22;10261;49.010;12.034;2023-02-15T03:55:06;2.60;99.90
20204;DHT22;10261;49.010;12.034;2023-02-15T03:56:09;2.80;99.90
20204;DHT22;10261;49.010;12.034;2023-02-15T03:57:14;2.90;99.90
20204;DHT22;10261;49.010;12.034;2023-02-15T03:58:35;3.00;99.90
20204;DHT22;10261;49.010;12.034;2023-02-15T03:59:56;3.00;99.90
20204;DHT22;10261;49.010;12.034;2023-02-15T04:01:23;3.00;99.90
20204;DHT22;10261;49.010;12.034;2023-02-15T04:02:57;3.10;99.90
20204;DHT22;10261;49.010;12.034;2023-02-15T04:04:09;3.10;99.90
20204;DHT22;10261;49.010;12.034;2023-02-15T04:05:13;3.10;99.90
20204;DHT22;10261;49.010;12.034;2023-02-15T04:06:16;3.00;99.90
20204;DHT22;10261;49.010;12.034;2023-02-15T04:07:19;2.70;99.90
20204;DHT22;10261;49.010;12.034;2023-02-15T04:08:22;2.80;99.90
20204;DHT22;10261;49.010;12.034;2023-02-15T04:09:44;2.90;99.90
20204;DHT22;10261;49.010;12.034;2023-02-15T04:11:05;3.00;99.90
20204;DHT22;10261;49.010;12.034;2023-02-15T04:12:07;3.00;99.90
20204;DHT22;10261;49.010;12.034;2023-02-15T04:13:10;3.10;99.90
20204;DHT22;10261;49.010;12.034;2023-02-15T04:14:12;3.10;99.90
20204;DHT22;10261;49.010;12.034;2023-02-15T04:15:29;3.10;99.90
20204;DHT22;10261;49.010;12.034;2023-02-15T04:16:49;3.20;99.90
20204;DHT22;10261;49.010;12.034;2023-02-15T04:17:52;3.20;99.90
20204;DHT22;10261;49.010;12.034;2023-02-15T04:18:54;3.30;99.90
20204;DHT22;10261;49.010;12.034;2023-02-15T04:20:15;3.10;99.90
20204;DHT22;10261;49.010;12.034;2023-02-15T04:21:35;3.10;99.90
20204;DHT22;10261;49.010;12.034;2023-02-15T04:22:57;3.10;99.90
20204;DHT22;10261;49.010;12.034;2023-02-15T04:24:17;3.10;99.90
20204;DHT22;10261;49.010;12.034;2023-02-15T04:25:37;3.10;99.90
20204;DHT22;10261;49.010;12.034;2023-02-15T04:26:40;3.20;99.90
20204;DHT22;10261;49.010;12.034;2023-02-15T04:27:44;3.10;99.90
20204;DHT22;10261;49.010;12.034;2023-02-15T04:28:48;3.20;99.90
20204;DHT22;10261;49.010;12.034;2023-02-15T04:29:50;3.20;99.90
20204;DHT22;10261;49.010;12.034;2023-02-15T04:30:53;3.20;99.90
20204;DHT22;10261;49.010;12.034;2023-02-15T04:31:57;3.00;99.90
20204;DHT22;10261;49.010;12.034;2023-02-15T04:33:00;2.80;99.90
20204;DHT22;10261;49.010;12.034;2023-02-15T04:34:02;2.70;99.90
20204;DHT22;10261;49.010;12.034;2023-02-15T04:35:06;2.60;99.90
20204;DHT22;10261;49.010;12.034;2023-02-15T04:36:08;2.50;99.90
20204;DHT22;10261;49.010;12.034;2023-02-15T04:37:11;2.50;99.90
20204;DHT22;10261;49.010;12.034;2023-02-15T04:38:15;2.40;99.90
20204;DHT22;10261;49.010;12.034;2023-02-15T04:39:19;2.50;99.90
20204;DHT22;10261;49.010;12.034;2023-02-15T04:40:22;2.50;99.90
20204;DHT22;10261;49.010;12.034;2023-02-15T04:41:23;2.30;99.90
20204;DHT22;10261;49.010;12.034;2023-02-15T04:42:27;2.20;99.90
20204;DHT22;10261;49.010;12.034;2023-02-15T04:43:29;2.30;99.90
20204;DHT22;10261;49.010;12.034;2023-02-15T04:44:32;2.20;99.90
20204;DHT22;10261;49.010;12.034;2023-02-15T04:45:34;2.20;99.90
20204;DHT22;10261;49.010;12.034;2023-02-15T04:46:37;2.30;99.90
20204;DHT22;10261;49.010;12.034;2023-02-15T04:47:39;2.30;99.90
20204;DHT22;10261;49.010;12.034;2023-02-15T04:48:42;2.20;99.90
20204;DHT22;10261;49.010;12.034;2023-02-15T04:49:45;2.10;99.90
20204;DHT22;10261;49.010;12.034;2023-02-15T04:50:48;2.20;99.90
20204;DHT22;10261;49.010;12.034;2023-02-15T04:51:51;2.30;99.90
20204;DHT22;10261;49.010;12.034;2023-02-15T04:52:53;2.30;99.90
20204;DHT22;10261;49.010;12.034;2023-02-15T04:53:57;2.20;99.90
20204;DHT22;10261;49.010;12.034;2023-02-15T04:54:59;2.10;99.90
20204;DHT22;10261;49.010;12.034;2023-02-15T04:56:02;2.10;99.90
20204;DHT22;10261;49.010;12.034;2023-02-15T04:57:05;2.10;99.90
20204;DHT22;10261;49.010;12.034;2023-02-15T04:58:08;2.10;99.90
20204;DHT22;10261;49.010;12.034;2023-02-15T04:59:10;2.10;99.90
20204;DHT22;10261;49.010;12.034;2023-02-15T05:00:13;3.20;99.90
20204;DHT22;10261;49.010;12.034;2023-02-15T05:01:17;2.00;99.90
20204;DHT22;10261;49.010;12.034;2023-02-15T05:02:19;2.00;99.90
20204;DHT22;10261;49.010;12.034;2023-02-15T05:03:22;2.00;99.90
20204;DHT22;10261;49.010;12.034;2023-02-15T05:04:24;2.00;99.90
20204;DHT22;10261;49.010;12.034;2023-02-15T05:05:27;2.10;99.90
20204;DHT22;10261;49.010;12.034;2023-02-15T05:06:29;2.10;99.90
20204;DHT22;10261;49.010;12.034;2023-02-15T05:07:32;2.00;99.90
20204;DHT22;10261;49.010;12.034;2023-02-15T05:08:34;2.10;99.90
20204;DHT22;10261;49.010;12.034;2023-02-15T05:09:39;2.10;99.90
20204;DHT22;10261;49.010;12.034;2023-02-15T05:10:41;2.10;99.90
20204;DHT22;10261;49.010;12.034;2023-02-15T05:11:43;2.30;99.90
20204;DHT22;10261;49.010;12.034;2023-02-15T05:12:46;2.50;99.90
20204;DHT22;10261;49.010;12.034;2023-02-15T05:13:49;2.60;99.90
20204;DHT22;10261;49.010;12.034;2023-02-15T05:14:51;2.70;99.90
20204;DHT22;10261;49.010;12.034;2023-02-15T05:15:54;2.70;99.90
20204;DHT22;10261;49.010;12.034;2023-02-15T05:16:56;2.80;99.90
20204;DHT22;10261;49.010;12.034;2023-02-15T05:18:02;2.80;99.90
20204;DHT22;10261;49.010;12.034;2023-02-15T05:19:04;2.90;99.90
20204;DHT22;10261;49.010;12.034;2023-02-15T05:20:08;2.80;99.90
20204;DHT22;10261;49.010;12.034;2023-02-15T05:21:10;2.90;99.90
20204;DHT22;10261;49.010;12.034;2023-02-15T05:22:15;2.90;99.90
20204;DHT22;10261;49.010;12.034;2023-02-15T05:23:17;2.90;99.90
20204;DHT22;10261;49.010;12.034;2023-02-15T05:24:20;3.00;99.90
20204;DHT22;10261;49.010;12.034;2023-02-15T05:25:50;3.00;99.90
20204;DHT22;10261;49.010;12.034;2023-02-15T05:27:11;2.90;99.90
20204;DHT22;10261;49.010;12.034;2023-02-15T05:28:32;2.90;99.90
20204;DHT22;10261;49.010;12.034;2023-02-15T05:29:35;2.90;99.90
20204;DHT22;10261;49.010;12.034;2023-02-15T05:30:37;3.00;99.90
20204;DHT22;10261;49.010;12.034;2023-02-15T05:31:41;3.00;99.90
20204;DHT22;10261;49.010;12.034;2023-02-15T05:32:46;3.00;99.90
20204;DHT22;10261;49.010;12.034;2023-02-15T05:33:49;3.00;99.90
20204;DHT22;10261;49.010;12.034;2023-02-15T05:34:51;3.00;99.90
20204;DHT22;10261;49.010;12.034;2023-02-15T05:35:54;3.00;99.90
20204;DHT22;10261;49.010;12.034;2023-02-15T05:36:55;3.00;99.90
20204;DHT22;10261;49.010;12.034;2023-02-15T05:37:58;3.10;99.90
20204;DHT22;10261;49.010;12.034;2023-02-15T05:39:00;3.20;99.90
20204;DHT22;10261;49.010;12.034;2023-02-15T05:40:06;3.30;99.90
20204;DHT22;10261;49.010;12.034;2023-02-15T05:41:11;3.20;99.90
20204;DHT22;10261;49.010;12.034;2023-02-15T05:42:14;3.20;99.90
20204;DHT22;10261;49.010;12.034;2023-02-15T05:43:16;3.20;99.90
20204;DHT22;10261;49.010;12.034;2023-02-15T05:44:19;3.10;99.90
20204;DHT22;10261;49.010;12.034;2023-02-15T05:45:20;3.00;99.90
20204;DHT22;10261;49.010;12.034;2023-02-15T05:46:23;3.00;99.90
20204;DHT22;10261;49.010;12.034;2023-02-15T05:47:26;2.90;99.90
20204;DHT22;10261;49.010;12.034;2023-02-15T05:48:29;3.00;99.90
20204;DHT22;10261;49.010;12.034;2023-02-15T05:49:32;3.00;99.90
20204;DHT22;10261;49.010;12.034;2023-02-15T05:50:34;3.00;99.90
20204;DHT22;10261;49.010;12.034;2023-02-15T05:51:37;3.00;99.90
20204;DHT22;10261;49.010;12.034;2023-02-15T05:52:39;3.00;99.90
20204;DHT22;10261;49.010;12.034;2023-02-15T05:53:42;3.10;99.90
20204;DHT22;10261;49.010;12.034;2023-02-15T05:54:44;3.10;99.90
20204;DHT22;10261;49.010;12.034;2023-02-15T05:55:46;3.10;99.90
20204;DHT22;10261;49.010;12.034;2023-02-15T05:56:50;3.10;99.90
20204;DHT22;10261;49.010;12.034;2023-02-15T05:57:53;3.00;99.90
20204;DHT22;10261;49.010;12.034;2023-02-15T05:58:56;3.10;99.90
20204;DHT22;10261;49.010;12.034;2023-02-15T05:59:58;3.00;99.90
20204;DHT22;10261;49.010;12.034;2023-02-15T06:01:07;3.10;99.90
20204;DHT22;10261;49.010;12.034;2023-02-15T06:02:10;3.10;99.90
20204;DHT22;10261;49.010;12.034;2023-02-15T06:03:13;3.10;99.90
20204;DHT22;10261;49.010;12.034;2023-02-15T06:04:15;3.00;99.90
20204;DHT22;10261;49.010;12.034;2023-02-15T06:05:18;3.00;99.90
20204;DHT22;10261;49.010;12.034;2023-02-15T06:06:20;3.10;99.90
20204;DHT22;10261;49.010;12.034;2023-02-15T06:07:23;3.10;99.90
20204;DHT22;10261;49.010;12.034;2023-02-15T06:08:25;3.10;99.90
20204;DHT22;10261;49.010;12.034;2023-02-15T06:09:28;3.10;99.90
20204;DHT22;10261;49.010;12.034;2023-02-15T06:10:31;3.10;99.90
20204;DHT22;10261;49.010;12.034;2023-02-15T06:11:33;3.10;99.90
20204;DHT22;10261;49.010;12.034;2023-02-15T06:12:37;3.10;99.90
20204;DHT22;10261;49.010;12.034;2023-02-15T06:13:41;3.10;99.90
20204;DHT22;10261;49.010;12.034;2023-02-15T06:14:43;3.10;99.90
20204;DHT22;10261;49.010;12.034;2023-02-15T06:15:45;3.10;99.90
20204;DHT22;10261;49.010;12.034;2023-02-15T06:16:47;3.10;99.90
20204;DHT22;10261;49.010;12.034;2023-02-15T06:17:50;3.20;99.90
20204;DHT22;10261;49.010;12.034;2023-02-15T06:18:53;3.20;99.90
20204;DHT22;10261;49.010;12.034;2023-02-15T06:19:56;3.30;99.90
20204;DHT22;10261;49.010;12.034;2023-02-15T06:21:00;3.30;99.90
20204;DHT22;10261;49.010;12.034;2023-02-15T06:22:03;3.20;99.90
20204;DHT22;10261;49.010;12.034;2023-02-15T06:23:07;3.20;99.90
20204;DHT22;10261;49.010;12.034;2023-02-15T06:24:10;3.10;99.90
20204;DHT22;10261;49.010;12.034;2023-02-15T06:25:13;3.20;99.90
20204;DHT22;10261;49.010;12.034;2023-02-15T06:26:15;3.10;99.90
20204;DHT22;10261;49.010;12.034;2023-02-15T06:27:17;3.20;99.90
20204;DHT22;10261;49.010;12.034;2023-02-15T06:28:21;3.20;99.90
20204;DHT22;10261;49.010;12.034;2023-02-15T06:29:24;3.10;99.90
20204;DHT22;10261;49.010;12.034;2023-02-15T06:30:26;3.10;99.90
20204;DHT22;10261;49.010;12.034;2023-02-15T06:31:31;3.10;99.90
20204;DHT22;10261;49.010;12.034;2023-02-15T06:32:34;3.20;99.90
20204;DHT22;10261;49.010;12.034;2023-02-15T06:33:37;3.20;99.90
20204;DHT22;10261;49.010;12.034;2023-02-15T06:34:39;3.20;99.90
20204;DHT22;10261;49.010;12.034;2023-02-15T06:35:42;3.20;99.90
20204;DHT22;10261;49.010;12.034;2023-02-15T06:36:44;3.20;99.90
20204;DHT22;10261;49.010;12.034;2023-02-15T06:37:48;3.20;99.90
20204;DHT22;10261;49.010;12.034;2023-02-15T06:38:50;3.20;99.90
20204;DHT22;10261;49.010;12.034;2023-02-15T06:39:53;3.20;99.90
20204;DHT22;10261;49.010;12.034;2023-02-15T06:40:55;3.10;99.90
20204;DHT22;10261;49.010;12.034;2023-02-15T06:41:58;3.10;99.90
20204;DHT22;10261;49.010;12.034;2023-02-15T06:43:00;3.10;99.90
20204;DHT22;10261;49.010;12.034;2023-02-15T06:44:04;3.20;99.90
20204;DHT22;10261;49.010;12.034;2023-02-15T06:45:07;3.10;99.90
20204;DHT22;10261;49.010;12.034;2023-02-15T06:46:10;3.20;99.90
20204;DHT22;10261;49.010;12.034;2023-02-15T06:47:12;3.20;99.90
20204;DHT22;10261;49.010;12.034;2023-02-15T06:48:15;3.20;99.90
20204;DHT22;10261;49.010;12.034;2023-02-15T06:49:17;3.20;99.90
20204;DHT22;10261;49.010;12.034;2023-02-15T06:50:20;3.20;99.90
20204;DHT22;10261;49.010;12.034;2023-02-15T06:51:22;3.10;99.90
20204;DHT22;10261;49.010;12.034;2023-02-15T06:52:25;3.10;99.90
20204;DHT22;10261;49.010;12.034;2023-02-15T06:53:27;3.20;99.90
20204;DHT22;10261;49.010;12.034;2023-02-15T06:54:30;3.10;99.90
20204;DHT22;10261;49.010;12.034;2023-02-15T06:55:32;3.00;99.90
20204;DHT22;10261;49.010;12.034;2023-02-15T06:56:35;2.90;99.90
20204;DHT22;10261;49.010;12.034;2023-02-15T06:57:38;2.90;99.90